createdAt,value
2022-11-05T00:00:51.765Z,8.20
2022-11-05T00:03:38.640Z,8.20
2022-11-05T00:06:27.981Z,8.20
2022-11-05T00:09:14.400Z,8.20
2022-11-05T00:12:00.266Z,8.20
2022-11-05T00:14:48.255Z,8.30
2022-11-05T00:17:16.759Z,8.30
2022-11-05T00:19:47.222Z,8.40
2022-11-05T00:22:33.385Z,8.40
2022-11-05T00:25:16.862Z,8.40
2022-11-05T00:27:47.222Z,8.30
2022-11-05T00:30:21.458Z,8.30
2022-11-05T00:32:52.424Z,8.20
2022-11-05T00:35:23.743Z,8.10
2022-11-05T00:37:54.676Z,8.10
2022-11-05T00:40:23.503Z,8.10
2022-11-05T00:43:09.907Z,8.10
2022-11-05T00:45:38.877Z,8.10
2022-11-05T00:48:25.895Z,8.10
2022-11-05T00:50:56.106Z,8.20
2022-11-05T00:53:25.284Z,8.10
2022-11-05T00:55:53.859Z,8.10
2022-11-05T00:58:24.003Z,8.00
2022-11-05T01:00:55.192Z,8.00
2022-11-05T01:03:26.400Z,8.10
2022-11-05T01:06:00.499Z,8.00
2022-11-05T01:08:30.017Z,8.00
2022-11-05T01:11:01.136Z,8.00
2022-11-05T01:13:31.771Z,8.00
2022-11-05T01:16:07.680Z,8.00
2022-11-05T01:18:39.339Z,8.00
2022-11-05T01:21:16.709Z,8.00
2022-11-05T01:23:47.296Z,8.00
2022-11-05T01:26:15.893Z,8.00
2022-11-05T01:28:44.277Z,8.10
2022-11-05T01:31:12.784Z,8.10
2022-11-05T01:33:41.470Z,8.10
2022-11-05T01:36:11.308Z,8.10
2022-11-05T01:38:43.306Z,8.10
2022-11-05T01:41:14.089Z,8.20
2022-11-05T01:43:52.313Z,8.20
2022-11-05T01:46:26.003Z,8.10
2022-11-05T01:49:02.872Z,8.20
2022-11-05T01:51:32.377Z,8.20
2022-11-05T01:54:06.051Z,8.20
2022-11-05T01:56:39.390Z,8.20
2022-11-05T01:59:13.064Z,8.20
2022-11-05T02:01:41.629Z,8.20
2022-11-05T02:04:17.461Z,8.20
2022-11-05T02:06:53.869Z,8.20
2022-11-05T02:09:29.743Z,8.20
2022-11-05T02:11:58.616Z,8.20
2022-11-05T02:14:30.853Z,8.20
2022-11-05T02:17:10.336Z,8.20
2022-11-05T02:20:12.058Z,8.20
2022-11-05T02:23:40.387Z,8.20
2022-11-05T02:26:54.767Z,8.20
2022-11-05T02:30:29.333Z,8.20
2022-11-05T02:33:31.071Z,8.20
2022-11-05T02:36:14.778Z,8.20
2022-11-05T02:38:52.975Z,8.20
2022-11-05T02:41:32.346Z,8.30
2022-11-05T02:44:15.505Z,8.20
2022-11-05T02:46:53.371Z,8.20
2022-11-05T02:49:35.305Z,8.20
2022-11-05T02:52:10.372Z,8.20
2022-11-05T02:54:43.859Z,8.30
2022-11-05T02:57:14.458Z,8.20
2022-11-05T02:59:43.061Z,8.20
2022-11-05T03:02:14.791Z,8.20
2022-11-05T03:04:43.752Z,8.10
2022-11-05T03:07:27.896Z,8.20
2022-11-05T03:10:26.522Z,8.10
2022-11-05T03:13:07.902Z,8.10
2022-11-05T03:15:55.836Z,8.10
2022-11-05T03:18:31.849Z,8.10
2022-11-05T03:21:06.104Z,8.10
2022-11-05T03:23:42.893Z,8.10
2022-11-05T03:26:19.223Z,8.10
2022-11-05T03:28:54.386Z,8.10
2022-11-05T03:31:24.543Z,8.10
2022-11-05T03:33:56.369Z,8.10
2022-11-05T03:36:29.750Z,8.10
2022-11-05T03:39:01.225Z,8.20
2022-11-05T03:41:30.910Z,8.20
2022-11-05T03:44:03.658Z,8.20
2022-11-05T03:46:37.345Z,8.20
2022-11-05T03:49:12.144Z,8.20
2022-11-05T03:51:47.919Z,8.20
2022-11-05T03:54:16.986Z,8.20
2022-11-05T03:56:53.293Z,8.20
2022-11-05T03:59:22.527Z,8.20
2022-11-05T04:01:51.816Z,8.20
2022-11-05T04:04:21.685Z,8.20
2022-11-05T04:07:07.350Z,8.20
2022-11-05T04:09:53.058Z,8.20
2022-11-05T04:12:38.971Z,8.20
2022-11-05T04:15:09.040Z,8.30
2022-11-05T04:17:36.550Z,8.30
2022-11-05T04:20:24.610Z,8.30
2022-11-05T04:23:18.046Z,8.30
2022-11-05T04:25:46.473Z,8.30
2022-11-05T04:28:15.459Z,8.20
2022-11-05T04:30:44.327Z,8.30
2022-11-05T04:33:15.314Z,8.20
2022-11-05T04:35:47.373Z,8.30
2022-11-05T04:38:19.258Z,8.30
2022-11-05T04:40:48.886Z,8.30
2022-11-05T04:43:19.777Z,8.20
2022-11-05T04:45:48.282Z,8.30
2022-11-05T04:48:16.834Z,8.30
2022-11-05T04:50:46.639Z,8.30
2022-11-05T04:53:14.907Z,8.30
2022-11-05T04:55:43.304Z,8.30
2022-11-05T04:58:11.559Z,8.30
2022-11-05T05:00:40.247Z,8.20
2022-11-05T05:03:08.907Z,8.20
2022-11-05T05:05:37.492Z,8.30
2022-11-05T05:08:07.890Z,8.30
2022-11-05T05:10:36.182Z,8.30
2022-11-05T05:13:04.428Z,8.30
2022-11-05T05:15:32.724Z,8.20
2022-11-05T05:18:01.287Z,8.20
2022-11-05T05:20:47.382Z,8.20
2022-11-05T05:23:17.187Z,8.10
2022-11-05T05:25:45.454Z,8.20
2022-11-05T05:28:17.212Z,8.10
2022-11-05T05:30:45.513Z,8.10
2022-11-05T05:33:13.967Z,8.10
2022-11-05T05:35:42.483Z,8.10
2022-11-05T05:38:10.998Z,8.10
2022-11-05T05:40:40.816Z,8.00
2022-11-05T05:43:10.126Z,8.00
2022-11-05T05:45:39.241Z,8.10
2022-11-05T05:48:14.805Z,8.00
2022-11-05T05:50:43.257Z,8.10
2022-11-05T05:53:12.389Z,8.00
2022-11-05T05:55:44.482Z,8.00
2022-11-05T05:58:13.144Z,8.00
2022-11-05T06:00:43.908Z,8.10
2022-11-05T06:03:12.753Z,8.00
2022-11-05T06:05:41.428Z,8.10
2022-11-05T06:08:09.774Z,8.00
2022-11-05T06:10:38.289Z,8.00
2022-11-05T06:13:08.296Z,8.00
2022-11-05T06:15:36.816Z,8.10
2022-11-05T06:18:05.375Z,8.10
2022-11-05T06:20:33.774Z,8.10
2022-11-05T06:23:02.140Z,8.10
2022-11-05T06:25:30.452Z,8.20
2022-11-05T06:27:58.759Z,8.20
2022-11-05T06:30:31.095Z,8.20
2022-11-05T06:33:04.790Z,8.20
2022-11-05T06:35:33.769Z,8.20
2022-11-05T06:38:02.857Z,8.20
2022-11-05T06:40:31.140Z,8.20
2022-11-05T06:43:00.185Z,8.20
2022-11-05T06:45:29.794Z,8.30
2022-11-05T06:47:59.154Z,8.20
2022-11-05T06:50:29.331Z,8.30
2022-11-05T06:52:58.226Z,8.30
2022-11-05T06:55:28.768Z,8.20
2022-11-05T06:57:58.016Z,8.20
2022-11-05T07:00:26.826Z,8.20
2022-11-05T07:02:57.007Z,8.20
2022-11-05T07:05:26.255Z,8.30
2022-11-05T07:07:54.517Z,8.30
2022-11-05T07:10:22.972Z,8.30
2022-11-05T07:12:51.589Z,8.30
2022-11-05T07:15:20.917Z,8.40
2022-11-05T07:17:49.689Z,8.40
2022-11-05T07:20:19.676Z,8.30
2022-11-05T07:22:48.466Z,8.30
2022-11-05T07:25:16.853Z,8.20
2022-11-05T07:27:45.124Z,8.20
2022-11-05T07:30:15.515Z,8.10
2022-11-05T07:32:44.073Z,8.10
2022-11-05T07:35:12.388Z,8.20
2022-11-05T07:37:45.998Z,8.10
2022-11-05T07:40:18.149Z,8.20
2022-11-05T07:42:48.101Z,8.20
2022-11-05T07:45:16.822Z,8.30
2022-11-05T07:47:49.688Z,8.30
2022-11-05T07:50:19.871Z,8.40
2022-11-05T07:52:50.022Z,8.40
2022-11-05T07:55:20.580Z,8.40
2022-11-05T07:57:50.891Z,8.50
2022-11-05T08:00:22.496Z,8.50
2022-11-05T08:03:07.748Z,8.60
2022-11-05T08:05:38.422Z,8.70
2022-11-05T08:08:10.169Z,8.80
2022-11-05T08:10:40.151Z,8.80
2022-11-05T08:13:09.356Z,8.80
2022-11-05T08:15:38.559Z,8.80
2022-11-05T08:18:09.454Z,8.80
2022-11-05T08:20:38.585Z,8.70
2022-11-05T08:23:08.470Z,8.80
2022-11-05T08:25:37.368Z,8.80
2022-11-05T08:28:07.857Z,8.80
2022-11-05T08:30:36.727Z,8.80
2022-11-05T08:33:08.105Z,8.80
2022-11-05T08:35:38.271Z,8.80
2022-11-05T08:38:09.452Z,8.90
2022-11-05T08:40:38.485Z,9.00
2022-11-05T08:43:09.841Z,9.00
2022-11-05T08:45:39.189Z,9.00
2022-11-05T08:48:09.916Z,9.00
2022-11-05T08:50:38.780Z,9.00
2022-11-05T08:53:10.840Z,9.10
2022-11-05T08:55:40.633Z,9.10
2022-11-05T08:58:15.131Z,9.20
2022-11-05T09:00:45.184Z,9.20
2022-11-05T09:03:14.587Z,9.30
2022-11-05T09:05:43.792Z,9.30
2022-11-05T09:08:15.885Z,9.40
2022-11-05T09:10:45.438Z,9.40
2022-11-05T09:13:18.807Z,9.40
2022-11-05T09:15:49.222Z,9.50
2022-11-05T09:18:19.677Z,9.50
2022-11-05T09:20:49.628Z,9.50
2022-11-05T09:23:19.577Z,9.60
2022-11-05T09:25:48.350Z,9.40
2022-11-05T09:28:19.185Z,9.30
2022-11-05T09:30:49.561Z,9.30
2022-11-05T09:33:20.440Z,9.30
2022-11-05T09:35:51.868Z,9.30
2022-11-05T09:38:22.116Z,9.40
2022-11-05T09:40:59.460Z,9.20
2022-11-05T09:43:36.136Z,9.20
2022-11-05T09:46:13.300Z,9.30
2022-11-05T09:48:43.711Z,9.30
2022-11-05T09:51:22.458Z,9.20
2022-11-05T09:53:55.372Z,9.30
2022-11-05T09:56:28.984Z,9.30
2022-11-05T09:59:02.798Z,9.30
2022-11-05T10:01:35.902Z,9.40
2022-11-05T10:04:09.718Z,9.50
2022-11-05T10:06:46.066Z,9.60
2022-11-05T10:09:25.742Z,9.60
2022-11-05T10:11:59.469Z,9.60
2022-11-05T10:14:33.741Z,9.60
2022-11-05T10:17:11.555Z,9.60
2022-11-05T10:19:45.620Z,9.60
2022-11-05T10:22:17.260Z,9.50
2022-11-05T10:24:49.077Z,9.60
2022-11-05T10:27:26.204Z,9.60
2022-11-05T10:29:55.322Z,9.60
2022-11-05T10:32:35.005Z,9.70
2022-11-05T10:35:13.095Z,9.70
2022-11-05T10:37:42.408Z,9.70
2022-11-05T10:40:26.476Z,9.80
2022-11-05T10:43:04.939Z,9.80
2022-11-05T10:45:45.418Z,9.90
2022-11-05T10:48:47.722Z,9.90
2022-11-05T10:51:17.773Z,10.00
2022-11-05T10:54:01.843Z,10.00
2022-11-05T10:56:36.683Z,10.00
2022-11-05T10:59:12.031Z,10.10
2022-11-05T11:01:41.385Z,10.00
2022-11-05T11:04:18.369Z,10.20
2022-11-05T11:06:51.533Z,10.20
2022-11-05T11:09:25.345Z,10.30
2022-11-05T11:12:04.193Z,10.50
2022-11-05T11:14:35.138Z,10.60
2022-11-05T11:17:29.135Z,10.60
2022-11-05T11:20:27.392Z,10.70
2022-11-05T11:23:06.813Z,10.90
2022-11-05T11:25:48.048Z,10.80
2022-11-05T11:28:25.261Z,10.80
2022-11-05T11:31:05.440Z,10.90
2022-11-05T11:33:35.402Z,10.90
2022-11-05T11:36:06.360Z,11.00
2022-11-05T11:38:38.483Z,11.10
2022-11-05T11:41:25.357Z,11.00
2022-11-05T11:44:06.822Z,11.10
2022-11-05T11:46:39.096Z,11.20
2022-11-05T11:49:33.171Z,11.30
2022-11-05T11:52:07.002Z,11.40
2022-11-05T11:54:37.642Z,11.10
2022-11-05T11:57:26.533Z,10.90
2022-11-05T12:00:13.820Z,10.90
2022-11-05T12:03:23.132Z,11.10
2022-11-05T12:06:05.212Z,11.10
2022-11-05T12:08:56.537Z,11.20
2022-11-05T12:11:36.580Z,11.30
2022-11-05T12:14:17.187Z,11.50
2022-11-05T12:17:15.399Z,11.50
2022-11-05T12:20:11.361Z,11.40
2022-11-05T12:23:24.971Z,11.20
2022-11-05T12:26:02.952Z,11.00
2022-11-05T12:29:18.586Z,11.00
2022-11-05T12:32:04.085Z,10.90
2022-11-05T12:34:55.711Z,10.80
2022-11-05T12:37:35.197Z,10.80
2022-11-05T12:40:32.901Z,10.70
2022-11-05T12:43:12.355Z,10.70
2022-11-05T12:45:48.920Z,10.80
2022-11-05T12:48:39.521Z,10.80
2022-11-05T12:51:22.042Z,10.80
2022-11-05T12:54:08.868Z,11.00
2022-11-05T12:56:43.267Z,10.90
2022-11-05T12:59:21.092Z,10.90
2022-11-05T13:01:54.827Z,11.00
2022-11-05T13:04:35.617Z,11.00
2022-11-05T13:07:08.977Z,10.90
2022-11-05T13:09:44.577Z,11.00
2022-11-05T13:12:16.688Z,10.90
2022-11-05T13:14:49.744Z,10.80
2022-11-05T13:17:21.798Z,10.80
2022-11-05T13:19:57.398Z,10.80
2022-11-05T13:22:37.397Z,10.80
2022-11-05T13:25:14.529Z,10.80
2022-11-05T13:27:52.667Z,10.90
2022-11-05T13:30:24.105Z,10.90
2022-11-05T13:33:00.186Z,11.10
2022-11-05T13:35:33.309Z,11.10
2022-11-05T13:38:25.184Z,11.10
2022-11-05T13:41:13.156Z,11.20
2022-11-05T13:44:03.820Z,11.10
2022-11-05T13:46:50.041Z,11.30
2022-11-05T13:49:54.235Z,11.30
2022-11-05T13:52:56.077Z,11.30
2022-11-05T13:55:48.635Z,11.20
2022-11-05T13:59:13.572Z,11.00
2022-11-05T14:01:50.256Z,11.00
2022-11-05T14:04:32.692Z,10.90
2022-11-05T14:07:16.853Z,10.90
2022-11-05T14:09:49.160Z,10.90
2022-11-05T14:12:27.287Z,10.90
2022-11-05T14:15:02.280Z,10.90
2022-11-05T14:17:54.891Z,10.80
2022-11-05T14:20:41.079Z,10.80
2022-11-05T14:23:50.014Z,10.90
2022-11-05T14:26:27.752Z,10.60
2022-11-05T14:29:26.057Z,10.70
2022-11-05T14:32:08.877Z,10.70
2022-11-05T14:34:56.860Z,10.70
2022-11-05T14:37:31.956Z,10.80
2022-11-05T14:40:30.793Z,10.80
2022-11-05T14:43:04.477Z,10.70
2022-11-05T14:45:36.952Z,10.60
2022-11-05T14:48:08.134Z,10.50
2022-11-05T14:50:40.135Z,10.50
2022-11-05T14:53:31.587Z,10.40
2022-11-05T14:56:05.296Z,10.40
2022-11-05T14:58:37.456Z,10.30
2022-11-05T15:01:09.646Z,10.20
2022-11-05T15:04:07.006Z,10.30
2022-11-05T15:06:37.416Z,10.20
2022-11-05T15:09:25.343Z,10.20
2022-11-05T15:12:09.083Z,10.10
2022-11-05T15:14:54.140Z,10.10
2022-11-05T15:17:30.005Z,10.10
2022-11-05T15:20:18.730Z,10.00
2022-11-05T15:22:51.100Z,10.00
2022-11-05T15:25:23.888Z,9.90
2022-11-05T15:28:06.019Z,9.80
2022-11-05T15:30:35.962Z,9.80
2022-11-05T15:33:18.238Z,9.80
2022-11-05T15:35:46.592Z,9.70
2022-11-05T15:38:34.092Z,9.60
2022-11-05T15:41:05.873Z,9.60
2022-11-05T15:43:34.790Z,9.60
2022-11-05T15:46:09.550Z,9.60
2022-11-05T15:48:38.301Z,9.60
2022-11-05T15:51:07.146Z,9.60
2022-11-05T15:54:23.985Z,9.60
2022-11-05T15:56:51.818Z,9.50
2022-11-05T15:59:22.887Z,9.50
2022-11-05T16:01:57.407Z,9.40
2022-11-05T16:04:29.919Z,9.30
2022-11-05T16:07:01.542Z,9.20
2022-11-05T16:09:33.537Z,9.10
2022-11-05T16:12:22.157Z,8.80
2022-11-05T16:15:18.026Z,8.70
2022-11-05T16:17:53.421Z,8.50
2022-11-05T16:20:28.403Z,8.50
2022-11-05T16:23:00.236Z,8.40
2022-11-05T16:25:41.396Z,8.40
2022-11-05T16:28:24.203Z,8.40
2022-11-05T16:30:58.499Z,8.30
2022-11-05T16:33:34.507Z,8.30
2022-11-05T16:36:02.966Z,8.30
2022-11-05T16:38:35.928Z,8.30
2022-11-05T16:41:04.481Z,8.40
2022-11-05T16:43:33.482Z,8.30
2022-11-05T16:46:02.941Z,8.30
2022-11-05T16:48:33.820Z,8.30
2022-11-05T16:51:02.329Z,8.20
2022-11-05T16:53:30.743Z,8.10
2022-11-05T16:56:00.211Z,8.00
2022-11-05T16:58:28.851Z,7.90
2022-11-05T17:01:04.655Z,7.80
2022-11-05T17:03:49.784Z,7.80
2022-11-05T17:06:21.476Z,7.80
2022-11-05T17:08:52.372Z,7.80
2022-11-05T17:11:23.849Z,7.70
2022-11-05T17:13:52.868Z,7.70
2022-11-05T17:16:23.917Z,7.70
2022-11-05T17:18:56.409Z,7.70
2022-11-05T17:21:25.368Z,7.70
2022-11-05T17:23:54.551Z,7.70
2022-11-05T17:26:23.008Z,7.80
2022-11-05T17:28:51.507Z,7.80
2022-11-05T17:31:19.837Z,7.80
2022-11-05T17:33:48.164Z,7.70
2022-11-05T17:36:17.919Z,7.70
2022-11-05T17:38:46.265Z,7.50
2022-11-05T17:41:16.428Z,7.40
2022-11-05T17:43:45.553Z,7.30
2022-11-05T17:46:18.808Z,7.20
2022-11-05T17:48:47.705Z,7.10
2022-11-05T17:51:20.009Z,7.00
2022-11-05T17:53:49.365Z,6.90
2022-11-05T17:56:32.594Z,6.80
2022-11-05T17:59:03.700Z,6.70
2022-11-05T18:01:35.923Z,6.60
2022-11-05T18:04:08.853Z,6.50
2022-11-05T18:06:40.906Z,6.50
2022-11-05T18:09:11.034Z,6.40
2022-11-05T18:11:39.995Z,6.40
2022-11-05T18:14:10.146Z,6.40
2022-11-05T18:16:41.997Z,6.30
2022-11-05T18:19:10.479Z,6.20
2022-11-05T18:21:40.253Z,6.30
2022-11-05T18:24:09.465Z,6.20
2022-11-05T18:26:37.865Z,6.10
2022-11-05T18:29:07.106Z,6.10
2022-11-05T18:31:36.679Z,6.10
2022-11-05T18:34:06.208Z,6.00
2022-11-05T18:36:35.026Z,5.90
2022-11-05T18:39:06.716Z,5.80
2022-11-05T18:41:36.315Z,5.80
2022-11-05T18:44:06.521Z,5.80
2022-11-05T18:46:56.936Z,5.70
2022-11-05T18:49:25.275Z,5.70
2022-11-05T18:51:55.062Z,5.60
2022-11-05T18:54:25.015Z,5.70
2022-11-05T18:56:53.415Z,5.70
2022-11-05T18:59:39.812Z,5.60
2022-11-05T19:02:11.787Z,5.70
2022-11-05T19:04:55.335Z,5.60
2022-11-05T19:07:31.685Z,5.70
2022-11-05T19:10:01.972Z,5.60
2022-11-05T19:12:36.328Z,5.60
2022-11-05T19:15:05.288Z,5.50
2022-11-05T19:17:34.661Z,5.40
2022-11-05T19:20:03.493Z,5.30
2022-11-05T19:22:31.871Z,5.20
2022-11-05T19:25:02.166Z,5.20
2022-11-05T19:27:30.880Z,5.10
2022-11-05T19:29:59.488Z,5.00
2022-11-05T19:32:28.021Z,5.00
2022-11-05T19:34:56.655Z,5.00
2022-11-05T19:37:25.454Z,5.00
2022-11-05T19:39:53.852Z,4.90
2022-11-05T19:42:24.189Z,4.80
2022-11-05T19:44:52.892Z,4.80
2022-11-05T19:47:21.504Z,4.80
2022-11-05T19:49:50.435Z,4.80
2022-11-05T19:52:19.190Z,4.80
2022-11-05T19:54:48.647Z,4.80
2022-11-05T19:57:17.293Z,4.80
2022-11-05T19:59:47.827Z,4.80
2022-11-05T20:02:16.869Z,4.70
2022-11-05T20:04:45.533Z,4.60
2022-11-05T20:07:16.363Z,4.60
2022-11-05T20:09:44.797Z,4.60
2022-11-05T20:12:14.289Z,4.50
2022-11-05T20:14:42.897Z,4.50
2022-11-05T20:17:14.534Z,4.50
2022-11-05T20:19:43.050Z,4.40
2022-11-05T20:22:11.655Z,4.30
2022-11-05T20:24:41.278Z,4.30
2022-11-05T20:27:09.779Z,4.30
2022-11-05T20:29:38.430Z,4.30
2022-11-05T20:32:09.454Z,4.30
2022-11-05T20:34:40.123Z,4.30
2022-11-05T20:37:08.883Z,4.20
2022-11-05T20:39:38.855Z,4.30
2022-11-05T20:42:07.427Z,4.30
2022-11-05T20:44:35.838Z,4.20
2022-11-05T20:47:05.216Z,4.20
2022-11-05T20:49:33.662Z,4.30
2022-11-05T20:52:04.166Z,4.30
2022-11-05T20:54:34.617Z,4.30
2022-11-05T20:57:03.588Z,4.30
2022-11-05T20:59:33.308Z,4.30
2022-11-05T21:02:01.989Z,4.20
2022-11-05T21:04:30.763Z,4.20
2022-11-05T21:07:00.191Z,4.20
2022-11-05T21:09:30.154Z,4.20
2022-11-05T21:12:14.005Z,4.20
2022-11-05T21:14:44.498Z,4.20
2022-11-05T21:17:14.552Z,4.10
2022-11-05T21:19:43.077Z,4.00
2022-11-05T21:22:15.506Z,3.90
2022-11-05T21:24:46.838Z,3.90
2022-11-05T21:27:15.639Z,3.80
2022-11-05T21:29:45.148Z,3.70
2022-11-05T21:32:13.846Z,3.70
2022-11-05T21:34:43.374Z,3.80
2022-11-05T21:37:11.712Z,3.70
2022-11-05T21:39:40.387Z,3.60
2022-11-05T21:42:10.043Z,3.60
2022-11-05T21:44:38.470Z,3.50
2022-11-05T21:47:09.502Z,3.50
2022-11-05T21:49:37.886Z,3.40
2022-11-05T21:52:24.014Z,3.50
2022-11-05T21:55:11.845Z,3.40
2022-11-05T21:58:00.123Z,3.50
2022-11-05T22:00:29.368Z,3.50
2022-11-05T22:03:00.326Z,3.50
2022-11-05T22:05:29.016Z,3.60
2022-11-05T22:08:27.827Z,3.60
2022-11-05T22:10:57.240Z,3.70
2022-11-05T22:13:27.765Z,3.60
2022-11-05T22:15:57.176Z,3.60
2022-11-05T22:18:25.532Z,3.60
2022-11-05T22:20:53.850Z,3.60
2022-11-05T22:23:22.984Z,3.50
2022-11-05T22:25:51.543Z,3.50
2022-11-05T22:28:20.767Z,3.50
2022-11-05T22:30:53.415Z,3.50
2022-11-05T22:33:21.750Z,3.40
2022-11-05T22:35:50.107Z,3.30
2022-11-05T22:38:19.256Z,3.40
2022-11-05T22:40:47.539Z,3.50
2022-11-05T22:43:15.905Z,3.50
2022-11-05T22:45:45.674Z,3.50
2022-11-05T22:48:18.621Z,3.50
2022-11-05T22:50:46.910Z,3.50
2022-11-05T22:53:15.370Z,3.50
2022-11-05T22:55:44.473Z,3.60
2022-11-05T22:58:13.029Z,3.70
2022-11-05T23:00:42.156Z,3.80
2022-11-05T23:03:11.052Z,4.00
2022-11-05T23:05:41.187Z,4.10
2022-11-05T23:08:28.482Z,4.30
2022-11-05T23:11:23.389Z,4.30
2022-11-05T23:13:51.876Z,4.30
2022-11-05T23:16:37.902Z,4.30
2022-11-05T23:19:23.838Z,4.30
2022-11-05T23:22:11.539Z,4.40
2022-11-05T23:24:40.736Z,4.30
2022-11-05T23:27:11.302Z,4.30
2022-11-05T23:29:39.972Z,4.40
2022-11-05T23:32:25.962Z,4.40
2022-11-05T23:34:56.821Z,4.50
2022-11-05T23:37:47.264Z,4.50
2022-11-05T23:40:20.042Z,4.60
2022-11-05T23:43:06.413Z,4.60
2022-11-05T23:45:53.371Z,4.70
2022-11-05T23:48:28.652Z,4.80
2022-11-05T23:51:02.394Z,4.90
2022-11-05T23:53:37.496Z,4.90
2022-11-05T23:56:11.844Z,4.90
2022-11-05T23:58:42.640Z,4.90
